Time;durP1;ratioP1;P1;durP2;ratioP2;P2;SDS_P1;SDS_P2;PMS_P1;PMS_P2;Temp;Humidity;BMP_temperature;BMP_pressure;BME280_temperature;BME280_humidity;BME280_pressure;Samples;Min_cycle;Max_cycle;Signal;HPM_P1;HPM_P2
2022/11/27 00:02:01;;;;;;;22.10;6.55;;;6.80;99.90;;;;;;5055708;28;20040;-87
2022/11/27 00:04:26;;;;;;;18.45;4.63;;;6.70;99.90;;;;;;5055290;28;20443;-87
2022/11/27 00:06:52;;;;;;;15.32;5.25;;;6.80;99.90;;;;;;5037454;28;20040;-87
2022/11/27 00:09:18;;;;;;;18.10;5.65;;;6.80;99.90;;;;;;5039215;28;20079;-87
2022/11/27 00:11:44;;;;;;;19.73;5.90;;;7.10;99.90;;;;;;5040238;28;20465;-87
2022/11/27 00:14:12;;;;;;;18.05;6.03;;;6.80;99.90;;;;;;5022864;28;20079;-87
2022/11/27 00:16:38;;;;;;;16.02;6.25;;;6.80;99.90;;;;;;5075071;28;20040;-88
2022/11/27 00:19:03;;;;;;;24.48;6.28;;;6.80;99.90;;;;;;5041278;28;20048;-88
2022/11/27 00:21:31;;;;;;;14.13;4.95;;;6.80;99.90;;;;;;5057756;28;20068;-87
2022/11/27 00:23:59;;;;;;;15.93;6.25;;;6.80;99.90;;;;;;5042547;28;20039;-87
2022/11/27 00:26:25;;;;;;;17.00;6.40;;;6.70;99.90;;;;;;5058050;28;20048;-88
2022/11/27 00:28:51;;;;;;;12.40;5.43;;;6.70;99.90;;;;;;5057896;28;20063;-88
2022/11/27 00:31:27;;;;;;;14.95;5.25;;;6.70;99.90;;;;;;5041831;28;20484;-88
2022/11/27 00:33:54;;;;;;;18.20;5.60;;;6.60;99.90;;;;;;5073146;28;20048;-88
2022/11/27 00:36:20;;;;;;;14.20;5.43;;;6.60;99.90;;;;;;5056840;28;20516;-87
2022/11/27 00:38:45;;;;;;;15.18;5.78;;;6.60;99.90;;;;;;5056720;28;20041;-87
2022/11/27 00:41:18;;;;;;;19.63;5.82;;;7.20;99.90;;;;;;5040141;28;20045;-87
2022/11/27 00:43:44;;;;;;;17.30;5.80;;;6.90;99.90;;;;;;5073124;28;20041;-87
2022/11/27 00:46:15;;;;;;;16.20;5.22;;;6.50;99.90;;;;;;5041415;28;20078;-87
2022/11/27 00:48:41;;;;;;;14.10;5.28;;;6.40;99.90;;;;;;5040660;28;20045;-87
2022/11/27 00:51:09;;;;;;;18.60;5.60;;;6.40;99.90;;;;;;5040235;28;20036;-87
2022/11/27 00:53:34;;;;;;;17.15;5.40;;;6.40;99.90;;;;;;5040767;28;20044;-87
2022/11/27 00:56:01;;;;;;;16.20;5.72;;;6.40;99.90;;;;;;5040363;28;20051;-87
2022/11/27 00:58:29;;;;;;;16.98;6.40;;;6.30;99.90;;;;;;5073803;28;20443;-87
2022/11/27 01:00:59;;;;;;;16.08;5.53;;;6.30;99.90;;;;;;5057225;28;20053;-87
2022/11/27 01:03:26;;;;;;;15.27;5.93;;;7.00;99.90;;;;;;5057849;28;20114;-88
2022/11/27 01:05:52;;;;;;;14.25;5.75;;;6.30;99.90;;;;;;5058779;28;20489;-87
2022/11/27 01:08:18;;;;;;;13.52;4.70;;;6.20;99.90;;;;;;5042653;28;20051;-87
2022/11/27 01:10:51;;;;;;;17.40;5.38;;;6.20;99.90;;;;;;5062207;28;20507;-88
2022/11/27 01:13:18;;;;;;;15.05;4.65;;;6.30;99.90;;;;;;5033904;28;20052;-87
2022/11/27 01:15:44;;;;;;;17.23;5.70;;;6.30;99.90;;;;;;5055644;28;20044;-87
2022/11/27 01:18:10;;;;;;;13.18;5.32;;;6.20;99.90;;;;;;5074450;28;20044;-87
2022/11/27 01:20:39;;;;;;;16.20;5.97;;;6.30;99.90;;;;;;5031309;28;20037;-87
2022/11/27 01:23:06;;;;;;;15.65;5.55;;;7.30;99.90;;;;;;5057320;28;20063;-88
2022/11/27 01:25:34;;;;;;;14.88;6.85;;;6.10;99.90;;;;;;5073152;28;20047;-87
2022/11/27 01:28:00;;;;;;;20.73;6.68;;;6.10;99.90;;;;;;5073202;28;20148;-87
2022/11/27 01:30:26;;;;;;;15.40;5.63;;;6.80;99.90;;;;;;5056367;28;20519;-85
2022/11/27 01:32:51;;;;;;;15.85;5.82;;;6.20;99.90;;;;;;5072494;28;20044;-87
2022/11/27 01:35:17;;;;;;;15.35;4.72;;;6.10;99.90;;;;;;5057171;28;20059;-87
2022/11/27 01:37:43;;;;;;;18.67;6.28;;;6.00;99.90;;;;;;5040551;28;20059;-87
2022/11/27 01:40:09;;;;;;;17.50;5.80;;;6.00;99.90;;;;;;5030855;28;20048;-88
2022/11/27 01:42:35;;;;;;;14.02;5.30;;;6.00;99.90;;;;;;5046869;28;20138;-87
2022/11/27 01:45:01;;;;;;;13.85;5.45;;;6.00;99.90;;;;;;5044420;28;20036;-87
2022/11/27 01:47:43;;;;;;;10.88;4.93;;;7.10;99.90;;;;;;5073911;28;20032;-87
2022/11/27 01:50:17;;;;;;;13.63;5.88;;;5.90;99.90;;;;;;5050435;28;20056;-87
2022/11/27 01:52:47;;;;;;;11.05;5.90;;;5.90;99.90;;;;;;5079743;28;20044;-87
2022/11/27 01:55:24;;;;;;;15.18;5.40;;;5.90;99.90;;;;;;5073030;28;20047;-87
2022/11/27 01:58:16;;;;;;;15.32;5.60;;;6.00;99.90;;;;;;5055445;28;20067;-87
2022/11/27 02:00:42;;;;;;;15.70;6.40;;;5.90;99.90;;;;;;5044027;28;20052;-87
2022/11/27 02:03:08;;;;;;;12.93;5.97;;;5.80;99.90;;;;;;5023599;28;20040;-87
2022/11/27 02:05:34;;;;;;;13.95;5.30;;;5.80;99.90;;;;;;5056349;28;20055;-87
2022/11/27 02:08:12;;;;;;;16.83;6.03;;;5.80;99.90;;;;;;5022637;28;20048;-87
2022/11/27 02:10:46;;;;;;;17.35;6.55;;;5.80;99.90;;;;;;5055286;28;20086;-87
2022/11/27 02:13:17;;;;;;;13.57;5.72;;;5.80;99.90;;;;;;5072131;28;20552;-87
2022/11/27 02:16:20;;;;;;;18.77;6.90;;;5.80;99.90;;;;;;5070682;28;20043;-86
2022/11/27 02:19:24;;;;;;;14.43;6.05;;;5.80;99.90;;;;;;5055529;28;20041;-87
2022/11/27 02:21:55;;;;;;;18.00;6.53;;;5.80;99.90;;;;;;5072811;28;20143;-87
2022/11/27 02:25:02;;;;;;;14.65;5.72;;;5.70;99.90;;;;;;5069205;28;20033;-87
2022/11/27 02:27:49;;;;;;;15.43;6.15;;;5.70;99.90;;;;;;5054285;28;20056;-88
2022/11/27 02:30:15;;;;;;;16.75;5.88;;;5.80;99.90;;;;;;5048941;28;20135;-86
2022/11/27 02:32:51;;;;;;;16.80;6.40;;;5.70;99.90;;;;;;5039566;28;20044;-87
2022/11/27 02:35:34;;;;;;;17.15;6.00;;;5.70;99.90;;;;;;5055281;28;20127;-87
2022/11/27 02:38:19;;;;;;;16.90;6.32;;;5.70;99.90;;;;;;5054297;28;20040;-88
2022/11/27 02:40:53;;;;;;;14.70;5.30;;;5.70;99.90;;;;;;5070954;28;20041;-87
2022/11/27 02:43:31;;;;;;;17.75;7.28;;;6.70;99.90;;;;;;5072175;28;20044;-87
2022/11/27 02:45:59;;;;;;;15.60;5.70;;;5.80;99.90;;;;;;5056630;28;20040;-87
2022/11/27 02:48:32;;;;;;;14.20;6.38;;;5.80;99.90;;;;;;5072353;28;20052;-87
2022/11/27 02:50:59;;;;;;;13.98;5.90;;;6.00;99.90;;;;;;5071708;28;20048;-87
2022/11/27 02:53:30;;;;;;;11.63;5.65;;;5.70;99.90;;;;;;5072693;28;20391;-86
2022/11/27 02:55:58;;;;;;;14.77;5.78;;;5.70;99.90;;;;;;5055723;28;20056;-87
2022/11/27 02:58:27;;;;;;;17.48;5.13;;;5.70;99.90;;;;;;5072805;28;20052;-86
2022/11/27 03:00:54;;;;;;;11.10;5.03;;;5.70;99.90;;;;;;5072305;28;20120;-87
2022/11/27 03:03:31;;;;;;;13.43;6.18;;;6.50;99.90;;;;;;5063377;28;20075;-86
2022/11/27 03:06:02;;;;;;;15.68;6.07;;;5.70;99.90;;;;;;5055561;28;20934;-87
2022/11/27 03:08:34;;;;;;;16.00;6.90;;;5.70;99.90;;;;;;5056146;28;20048;-87
2022/11/27 03:11:10;;;;;;;18.65;6.55;;;5.70;99.90;;;;;;5055664;28;20089;-87
2022/11/27 03:13:41;;;;;;;14.20;5.40;;;5.70;99.90;;;;;;5056225;28;20497;-88
2022/11/27 03:16:37;;;;;;;14.73;4.78;;;5.80;99.90;;;;;;5056759;28;20383;-87
2022/11/27 03:19:23;;;;;;;12.65;5.30;;;5.70;99.90;;;;;;5055269;28;20055;-87
2022/11/27 03:21:56;;;;;;;16.10;6.70;;;5.70;99.90;;;;;;5053813;28;20102;-82
2022/11/27 03:24:22;;;;;;;18.25;6.15;;;5.70;99.90;;;;;;5052970;28;20046;-82
2022/11/27 03:26:48;;;;;;;16.65;5.78;;;5.80;99.90;;;;;;5021111;28;20480;-82
2022/11/27 03:29:20;;;;;;;12.50;5.30;;;5.80;99.90;;;;;;5071354;28;20923;-82
2022/11/27 03:31:46;;;;;;;15.98;5.78;;;5.80;99.90;;;;;;5053402;28;20048;-81
2022/11/27 03:34:12;;;;;;;15.05;6.43;;;5.80;99.90;;;;;;5036325;28;20056;-82
2022/11/27 03:36:38;;;;;;;14.60;4.97;;;5.80;99.90;;;;;;5067771;28;20416;-81
2022/11/27 03:39:04;;;;;;;19.98;5.45;;;5.80;99.90;;;;;;5018812;28;20150;-82
2022/11/27 03:41:52;;;;;;;17.27;5.05;;;5.80;99.90;;;;;;5069903;28;20075;-82
2022/11/27 03:44:39;;;;;;;16.75;6.28;;;5.90;99.90;;;;;;5069798;28;20427;-82
2022/11/27 03:47:29;;;;;;;16.30;5.25;;;5.90;99.90;;;;;;5086427;28;20102;-82
2022/11/27 03:50:25;;;;;;;12.93;5.32;;;5.90;99.90;;;;;;5069673;28;20059;-82
2022/11/27 03:53:08;;;;;;;14.35;4.80;;;5.90;99.90;;;;;;5044836;28;20461;-81
2022/11/27 03:55:33;;;;;;;15.23;5.25;;;5.90;99.90;;;;;;5053664;28;20388;-82
2022/11/27 03:58:03;;;;;;;13.90;4.88;;;5.90;99.90;;;;;;5057451;28;20059;-81
2022/11/27 04:00:34;;;;;;;17.40;5.88;;;5.90;99.90;;;;;;5057556;28;20043;-82
2022/11/27 04:03:02;;;;;;;15.88;5.95;;;6.00;99.90;;;;;;5057285;28;20047;-81
2022/11/27 04:05:28;;;;;;;15.30;5.72;;;5.90;99.90;;;;;;5040115;28;20041;-82
2022/11/27 04:07:54;;;;;;;14.30;5.43;;;6.20;99.90;;;;;;5072923;28;20051;-82
2022/11/27 04:10:20;;;;;;;19.27;5.70;;;5.90;99.90;;;;;;5056738;28;20040;-82
2022/11/27 04:12:45;;;;;;;13.57;5.13;;;5.90;99.90;;;;;;5057262;28;20036;-82
2022/11/27 04:15:12;;;;;;;13.73;5.60;;;5.90;99.90;;;;;;5048541;28;20511;-81
2022/11/27 04:17:38;;;;;;;17.55;5.57;;;5.90;99.90;;;;;;5036706;28;20105;-82
2022/11/27 04:20:04;;;;;;;17.02;5.05;;;5.90;99.90;;;;;;5056874;28;20032;-82
2022/11/27 04:22:30;;;;;;;10.63;5.47;;;6.00;99.90;;;;;;5073238;28;20072;-81
2022/11/27 04:24:56;;;;;;;11.65;4.75;;;5.90;99.90;;;;;;5023872;28;20071;-82
2022/11/27 04:27:21;;;;;;;14.02;5.20;;;6.00;99.90;;;;;;5056707;28;20098;-82
2022/11/27 04:29:47;;;;;;;11.68;3.67;;;6.20;99.90;;;;;;5039482;28;20044;-81
2022/11/27 04:32:13;;;;;;;12.07;4.88;;;6.00;99.90;;;;;;5040386;28;20072;-81
2022/11/27 04:34:39;;;;;;;14.35;4.57;;;6.00;99.90;;;;;;5055707;28;20052;-82
2022/11/27 04:37:04;;;;;;;13.20;4.50;;;6.20;99.90;;;;;;5056503;28;20409;-81
2022/11/27 04:39:30;;;;;;;11.75;4.18;;;6.00;99.90;;;;;;5039632;28;20068;-81
2022/11/27 04:41:56;;;;;;;12.88;5.30;;;6.00;99.90;;;;;;5048034;28;20037;-82
2022/11/27 04:44:22;;;;;;;11.88;4.50;;;6.10;99.90;;;;;;5040016;28;20115;-82
2022/11/27 04:46:48;;;;;;;14.20;5.00;;;6.10;99.90;;;;;;5056556;28;20114;-82
2022/11/27 04:49:14;;;;;;;12.80;4.35;;;6.20;99.90;;;;;;5056545;28;20044;-82
2022/11/27 04:51:40;;;;;;;15.98;4.65;;;6.10;99.90;;;;;;5022855;28;20078;-82
2022/11/27 04:54:05;;;;;;;12.35;3.40;;;6.20;99.90;;;;;;5072710;28;20083;-82
2022/11/27 04:56:31;;;;;;;12.77;4.75;;;6.20;99.90;;;;;;5072332;28;20556;-82
2022/11/27 04:58:57;;;;;;;13.00;4.88;;;6.10;99.90;;;;;;5038812;28;20086;-82
2022/11/27 05:01:23;;;;;;;13.80;4.82;;;6.20;99.90;;;;;;5055773;28;20115;-81
2022/11/27 05:03:48;;;;;;;17.40;5.15;;;6.20;99.90;;;;;;5055769;28;20126;-82
2022/11/27 05:06:14;;;;;;;13.07;4.90;;;7.00;99.90;;;;;;5056435;28;20511;-82
2022/11/27 05:08:40;;;;;;;12.25;4.30;;;6.80;99.90;;;;;;5038113;28;20464;-82
2022/11/27 05:11:16;;;;;;;9.25;3.05;;;6.10;99.90;;;;;;5039554;28;20080;-82
2022/11/27 05:13:42;;;;;;;11.27;4.63;;;6.10;99.90;;;;;;5056817;28;20492;-81
2022/11/27 05:16:09;;;;;;;12.27;4.55;;;6.00;99.90;;;;;;5038718;28;20098;-81
2022/11/27 05:18:35;;;;;;;17.50;4.20;;;6.00;99.90;;;;;;5072418;28;20418;-82
2022/11/27 05:21:06;;;;;;;12.82;4.43;;;6.00;99.90;;;;;;5072426;28;20040;-82
2022/11/27 05:23:32;;;;;;;9.88;3.95;;;6.00;99.90;;;;;;5055911;28;20385;-82
2022/11/27 05:25:59;;;;;;;15.48;4.75;;;6.00;99.90;;;;;;5072550;28;20056;-82
2022/11/27 05:28:25;;;;;;;11.93;4.65;;;6.00;99.90;;;;;;5055701;28;20048;-82
2022/11/27 05:30:51;;;;;;;12.27;3.72;;;6.00;99.90;;;;;;5069468;28;20037;-82
2022/11/27 05:33:17;;;;;;;13.77;4.18;;;6.00;99.90;;;;;;5038871;28;20396;-82
2022/11/27 05:35:44;;;;;;;14.05;4.50;;;6.00;99.90;;;;;;5054797;28;20041;-82
2022/11/27 05:38:10;;;;;;;13.93;4.93;;;6.00;99.90;;;;;;5054886;28;20032;-82
2022/11/27 05:40:37;;;;;;;7.63;3.35;;;6.00;99.90;;;;;;5072436;28;20098;-82
2022/11/27 05:43:02;;;;;;;15.32;4.88;;;6.70;99.90;;;;;;5070933;28;20067;-82
2022/11/27 05:45:29;;;;;;;11.23;4.45;;;6.10;99.90;;;;;;5073207;28;20044;-82
2022/11/27 05:47:55;;;;;;;9.85;4.35;;;6.00;99.90;;;;;;5053445;28;20473;-82
2022/11/27 05:50:20;;;;;;;10.10;4.00;;;6.00;99.90;;;;;;5061294;28;20071;-81
2022/11/27 05:52:46;;;;;;;11.18;4.40;;;6.00;99.90;;;;;;5076817;28;20385;-82
2022/11/27 05:55:12;;;;;;;12.50;4.43;;;5.90;99.90;;;;;;5055743;28;20072;-82
2022/11/27 05:57:38;;;;;;;11.85;4.38;;;6.00;99.90;;;;;;5071726;28;20074;-82
2022/11/27 06:00:06;;;;;;;11.18;4.05;;;6.00;99.90;;;;;;5070887;28;20040;-82
2022/11/27 06:02:31;;;;;;;16.90;4.72;;;6.00;99.90;;;;;;5054633;28;20041;-82
2022/11/27 06:04:57;;;;;;;16.20;4.68;;;6.00;99.90;;;;;;5071650;28;20047;-81
2022/11/27 06:07:23;;;;;;;15.43;5.40;;;6.00;99.90;;;;;;5036982;28;20036;-81
2022/11/27 06:09:49;;;;;;;13.40;5.13;;;5.90;99.90;;;;;;5071068;28;20040;-82
2022/11/27 06:12:14;;;;;;;15.02;4.70;;;6.00;99.90;;;;;;5070680;28;20105;-82
2022/11/27 06:14:40;;;;;;;12.95;5.18;;;6.00;99.90;;;;;;5037641;28;20412;-81
2022/11/27 06:17:06;;;;;;;16.88;5.65;;;6.00;99.90;;;;;;5071196;28;20049;-81
2022/11/27 06:19:31;;;;;;;12.35;4.32;;;6.30;99.90;;;;;;5037562;28;20397;-81
2022/11/27 06:21:57;;;;;;;12.85;4.65;;;6.00;99.90;;;;;;5071131;28;20040;-81
2022/11/27 06:24:23;;;;;;;9.07;4.10;;;5.90;99.90;;;;;;5054280;28;20043;-82
2022/11/27 06:26:48;;;;;;;11.65;4.20;;;6.00;99.90;;;;;;5038447;28;20048;-81
2022/11/27 06:29:14;;;;;;;11.15;4.47;;;6.00;99.90;;;;;;5053610;28;20691;-82
2022/11/27 06:31:40;;;;;;;8.82;4.75;;;6.00;99.90;;;;;;5054325;28;20044;-82
2022/11/27 06:34:06;;;;;;;9.02;4.00;;;6.00;99.90;;;;;;5054619;28;20040;-82
2022/11/27 06:36:35;;;;;;;11.15;4.38;;;6.00;99.90;;;;;;5071691;28;20465;-81
2022/11/27 06:39:03;;;;;;;12.43;4.55;;;6.00;99.90;;;;;;5070609;28;20043;-82
2022/11/27 06:41:28;;;;;;;11.90;4.90;;;6.00;99.90;;;;;;5070702;28;20074;-82
2022/11/27 06:43:56;;;;;;;9.77;4.50;;;6.00;99.90;;;;;;5021207;28;20059;-81
2022/11/27 06:46:23;;;;;;;10.73;4.55;;;6.00;99.90;;;;;;5071312;28;20071;-82
2022/11/27 06:48:50;;;;;;;12.38;5.00;;;6.10;99.90;;;;;;5053840;28;20553;-82
2022/11/27 06:51:19;;;;;;;12.32;5.80;;;6.00;99.90;;;;;;5070537;28;20044;-82
2022/11/27 06:53:44;;;;;;;12.25;5.32;;;6.00;99.90;;;;;;5037261;28;20115;-82
2022/11/27 06:56:20;;;;;;;14.85;5.20;;;6.00;99.90;;;;;;5036924;28;20417;-82
2022/11/27 06:58:50;;;;;;;13.88;5.10;;;6.00;99.90;;;;;;5070379;28;20558;-81
2022/11/27 07:01:17;;;;;;;8.57;4.10;;;6.10;99.90;;;;;;5071141;28;20047;-81
2022/11/27 07:03:43;;;;;;;16.05;5.53;;;6.00;99.90;;;;;;5069796;28;20047;-81
2022/11/27 07:06:12;;;;;;;10.00;4.40;;;6.00;99.90;;;;;;5068876;28;20036;-81
2022/11/27 07:08:38;;;;;;;13.77;4.95;;;6.00;99.90;;;;;;5069569;28;20119;-82
2022/11/27 07:11:10;;;;;;;12.57;5.18;;;6.00;99.90;;;;;;5037491;28;20115;-81
2022/11/27 07:13:36;;;;;;;14.60;5.95;;;6.00;99.90;;;;;;5053751;28;20068;-81
2022/11/27 07:16:04;;;;;;;14.73;5.20;;;6.60;99.90;;;;;;5054860;28;20095;-81
2022/11/27 07:18:37;;;;;;;13.80;5.32;;;6.00;99.90;;;;;;5070301;28;20591;-81
2022/11/27 07:21:04;;;;;;;11.38;5.53;;;6.00;99.90;;;;;;5054487;28;20378;-81
2022/11/27 07:23:29;;;;;;;13.45;5.38;;;6.10;99.90;;;;;;5071406;28;21000;-82
2022/11/27 07:25:55;;;;;;;14.15;4.38;;;6.10;99.90;;;;;;5022138;28;20040;-82
2022/11/27 07:28:21;;;;;;;15.30;5.35;;;7.10;99.90;;;;;;5071950;28;20372;-82
2022/11/27 07:30:57;;;;;;;9.80;5.38;;;6.10;99.90;;;;;;5055132;28;20044;-82
2022/11/27 07:33:23;;;;;;;10.40;5.43;;;6.10;99.90;;;;;;5038044;28;20037;-82
2022/11/27 07:35:56;;;;;;;12.80;5.53;;;6.10;99.90;;;;;;5071335;28;20070;-81
2022/11/27 07:38:21;;;;;;;12.70;6.22;;;6.20;99.90;;;;;;5054703;28;20397;-81
2022/11/27 07:40:47;;;;;;;12.82;6.65;;;6.10;99.90;;;;;;5038686;28;20041;-81
2022/11/27 07:43:13;;;;;;;11.05;4.72;;;6.10;99.90;;;;;;5071617;28;20127;-81
2022/11/27 07:45:38;;;;;;;12.63;5.15;;;6.10;99.90;;;;;;5053773;28;20047;-81
2022/11/27 07:48:04;;;;;;;16.17;6.15;;;6.10;99.90;;;;;;5053081;28;20127;-81
2022/11/27 07:50:30;;;;;;;13.38;5.95;;;6.10;99.90;;;;;;5071459;28;20486;-81
2022/11/27 07:52:55;;;;;;;11.60;5.88;;;6.20;99.90;;;;;;5039402;28;20127;-81
2022/11/27 07:55:21;;;;;;;11.02;5.82;;;6.10;99.90;;;;;;5038663;28;20119;-81
2022/11/27 07:57:47;;;;;;;12.00;5.50;;;6.20;99.90;;;;;;5055867;28;20106;-82
2022/11/27 08:00:13;;;;;;;11.32;5.68;;;6.60;99.90;;;;;;5038256;28;20084;-82
2022/11/27 08:02:39;;;;;;;12.00;5.80;;;6.20;99.90;;;;;;5047425;28;20037;-81
2022/11/27 08:05:05;;;;;;;12.40;5.43;;;6.20;99.90;;;;;;5054396;28;20044;-81
2022/11/27 08:07:31;;;;;;;12.85;6.07;;;6.20;99.90;;;;;;5054635;28;20560;-81
2022/11/27 08:09:57;;;;;;;11.77;5.75;;;6.80;99.90;;;;;;5050737;28;20131;-81
2022/11/27 08:12:23;;;;;;;13.05;5.25;;;7.20;99.90;;;;;;5070845;28;20067;-81
2022/11/27 08:14:49;;;;;;;11.73;5.35;;;7.00;99.90;;;;;;5023510;28;20106;-80
2022/11/27 08:17:15;;;;;;;17.73;6.07;;;6.60;99.90;;;;;;5038296;28;21022;-81
2022/11/27 08:19:41;;;;;;;14.73;5.75;;;6.70;99.90;;;;;;5038521;28;20062;-81
2022/11/27 08:22:11;;;;;;;13.32;4.85;;;7.10;99.90;;;;;;5037514;28;20044;-80
2022/11/27 08:24:37;;;;;;;11.93;5.55;;;6.40;99.90;;;;;;5071619;28;20036;-80
2022/11/27 08:27:03;;;;;;;12.70;5.30;;;6.40;99.90;;;;;;5055162;28;20119;-80
2022/11/27 08:29:29;;;;;;;10.68;5.78;;;7.20;99.90;;;;;;5054425;28;20519;-81
2022/11/27 08:31:55;;;;;;;14.25;5.55;;;6.40;99.90;;;;;;5037236;28;20060;-81
2022/11/27 08:34:20;;;;;;;10.85;6.00;;;7.00;99.90;;;;;;5037355;28;20041;-82
2022/11/27 08:36:46;;;;;;;13.75;6.13;;;6.80;99.90;;;;;;5054610;28;20045;-82
2022/11/27 08:39:12;;;;;;;16.48;6.50;;;7.80;99.90;;;;;;5055426;28;20115;-82
2022/11/27 08:41:38;;;;;;;18.38;6.13;;;6.50;99.90;;;;;;5053422;28;20049;-82
2022/11/27 08:44:04;;;;;;;10.02;5.70;;;6.50;99.90;;;;;;5023221;28;20081;-82
2022/11/27 08:46:29;;;;;;;13.93;5.40;;;6.50;99.90;;;;;;5038772;28;20090;-82
2022/11/27 08:48:55;;;;;;;15.52;6.18;;;6.50;99.90;;;;;;5047994;28;20441;-82
2022/11/27 08:51:21;;;;;;;11.52;6.38;;;6.50;99.90;;;;;;5040685;28;20131;-82
2022/11/27 08:53:46;;;;;;;14.30;6.47;;;6.50;99.90;;;;;;5056963;28;20044;-83
2022/11/27 08:56:17;;;;;;;14.98;6.60;;;6.60;99.90;;;;;;5057173;28;20131;-82
2022/11/27 08:58:44;;;;;;;11.65;5.97;;;6.60;99.90;;;;;;5056755;28;20060;-82
2022/11/27 09:01:18;;;;;;;17.73;7.25;;;6.60;99.90;;;;;;5040153;28;20051;-82
2022/11/27 09:03:45;;;;;;;16.92;6.90;;;7.20;99.90;;;;;;5056540;28;20036;-81
2022/11/27 09:06:13;;;;;;;14.63;6.93;;;6.60;99.90;;;;;;5073062;28;20046;-82
2022/11/27 09:08:40;;;;;;;11.77;6.30;;;6.60;99.90;;;;;;5072467;28;20115;-82
2022/11/27 09:11:06;;;;;;;14.00;6.60;;;7.80;99.90;;;;;;5072441;28;20174;-82
2022/11/27 09:13:35;;;;;;;10.60;6.40;;;6.60;99.90;;;;;;5072784;28;20481;-81
2022/11/27 09:16:03;;;;;;;17.83;7.53;;;6.60;99.90;;;;;;5051978;28;20044;-82
2022/11/27 09:18:28;;;;;;;14.68;6.70;;;6.50;99.90;;;;;;5057049;28;20048;-82
2022/11/27 09:21:00;;;;;;;13.73;7.55;;;6.50;99.90;;;;;;5074686;28;20040;-82
2022/11/27 09:23:27;;;;;;;16.52;7.45;;;6.50;99.90;;;;;;5056199;28;20037;-82
2022/11/27 09:25:52;;;;;;;15.05;7.22;;;6.50;99.90;;;;;;5072393;28;20046;-82
2022/11/27 09:28:19;;;;;;;16.90;6.82;;;6.40;99.90;;;;;;5038766;28;20037;-81
2022/11/27 09:30:45;;;;;;;17.05;6.70;;;6.40;99.90;;;;;;5073659;28;20098;-81
2022/11/27 09:33:11;;;;;;;15.10;7.85;;;6.40;99.90;;;;;;5072432;28;20043;-81
2022/11/27 09:35:37;;;;;;;15.55;7.53;;;6.40;99.90;;;;;;5056884;28;20043;-81
2022/11/27 09:38:03;;;;;;;17.63;7.60;;;6.40;99.90;;;;;;5038158;28;20094;-81
2022/11/27 09:40:29;;;;;;;16.95;8.07;;;6.40;99.90;;;;;;5056038;28;20040;-86
2022/11/27 09:43:01;;;;;;;15.48;7.63;;;7.30;99.90;;;;;;5038660;28;20396;-81
2022/11/27 09:45:27;;;;;;;15.45;7.30;;;6.40;99.90;;;;;;5056198;28;20028;-82
2022/11/27 09:48:08;;;;;;;15.32;7.70;;;6.40;99.90;;;;;;5075090;28;20083;-81
2022/11/27 09:50:48;;;;;;;17.58;7.72;;;6.40;99.90;;;;;;5054215;28;20040;-82
2022/11/27 09:53:30;;;;;;;16.45;7.38;;;6.40;99.90;;;;;;5076402;28;20066;-81
2022/11/27 09:56:02;;;;;;;12.38;5.88;;;6.40;99.90;;;;;;5065825;28;20071;-82
2022/11/27 09:58:41;;;;;;;17.48;7.35;;;6.40;99.90;;;;;;5069594;28;20102;-82
2022/11/27 10:01:12;;;;;;;14.70;6.05;;;6.30;99.90;;;;;;5047625;28;20043;-82
2022/11/27 10:03:41;;;;;;;19.52;8.50;;;6.40;99.90;;;;;;5072456;28;20090;-82
2022/11/27 10:06:30;;;;;;;14.70;7.40;;;6.40;99.90;;;;;;5055373;28;20044;-82
2022/11/27 10:09:32;;;;;;;19.63;8.13;;;6.40;99.90;;;;;;5047377;28;20127;-81
2022/11/27 10:12:21;;;;;;;15.98;8.10;;;6.40;99.90;;;;;;5072296;28;20040;-81
2022/11/27 10:15:08;;;;;;;16.75;6.93;;;6.30;99.90;;;;;;5056076;28;20040;-81
2022/11/27 10:17:59;;;;;;;15.25;7.38;;;6.40;99.90;;;;;;5071762;28;20037;-82
2022/11/27 10:20:43;;;;;;;19.35;8.80;;;6.40;99.90;;;;;;5055236;28;20493;-81
2022/11/27 10:23:20;;;;;;;19.00;7.70;;;6.40;99.90;;;;;;5071573;28;20045;-82
2022/11/27 10:25:53;;;;;;;16.35;8.00;;;6.40;99.90;;;;;;5071175;28;20492;-81
2022/11/27 10:28:35;;;;;;;17.10;7.47;;;6.40;99.90;;;;;;5072397;28;20382;-81
2022/11/27 10:31:24;;;;;;;15.07;7.25;;;6.30;99.90;;;;;;5055113;28;20175;-83
2022/11/27 10:33:57;;;;;;;15.13;8.70;;;6.40;99.90;;;;;;5053513;28;20051;-82
2022/11/27 10:36:38;;;;;;;15.18;8.07;;;7.10;99.90;;;;;;5071461;28;20036;-82
2022/11/27 10:39:12;;;;;;;15.38;7.63;;;5.80;99.90;;;;;;5069950;28;20045;-82
2022/11/27 10:41:46;;;;;;;18.13;8.45;;;6.60;99.90;;;;;;5055102;28;20044;-82
2022/11/27 10:44:34;;;;;;;12.73;7.20;;;6.40;99.90;;;;;;5073127;28;20566;-82
2022/11/27 10:47:11;;;;;;;14.40;7.60;;;6.50;99.90;;;;;;5053944;28;20048;-82
2022/11/27 10:49:39;;;;;;;19.55;8.25;;;6.50;99.90;;;;;;5071088;28;20133;-81
2022/11/27 10:52:08;;;;;;;17.08;8.55;;;6.40;99.90;;;;;;5050809;28;20036;-81
2022/11/27 10:54:37;;;;;;;14.73;8.50;;;6.70;99.90;;;;;;5054411;28;20078;-81
2022/11/27 10:57:03;;;;;;;17.25;7.75;;;6.50;99.90;;;;;;5072932;28;20053;-82
2022/11/27 10:59:42;;;;;;;18.20;8.13;;;6.60;99.90;;;;;;5055289;28;20071;-81
2022/11/27 11:02:32;;;;;;;16.52;8.25;;;6.50;99.90;;;;;;5053925;28;20047;-81
2022/11/27 11:05:17;;;;;;;17.38;7.97;;;6.50;99.90;;;;;;5068454;28;20116;-81
2022/11/27 11:08:00;;;;;;;14.32;6.95;;;6.60;99.90;;;;;;5053353;28;20101;-81
2022/11/27 11:10:31;;;;;;;16.42;8.40;;;6.50;99.90;;;;;;5055519;28;20485;-81
2022/11/27 11:13:17;;;;;;;19.33;8.20;;;6.50;99.90;;;;;;5071932;28;20047;-81
2022/11/27 11:15:53;;;;;;;13.25;6.60;;;6.60;99.90;;;;;;5072110;28;20067;-82
2022/11/27 11:18:22;;;;;;;17.83;7.35;;;6.60;99.90;;;;;;5047562;28;20036;-81
2022/11/27 11:21:00;;;;;;;12.20;6.63;;;6.50;99.90;;;;;;5054939;28;20086;-80
2022/11/27 11:23:35;;;;;;;14.73;7.95;;;7.20;99.90;;;;;;5070443;28;20029;-79
2022/11/27 11:26:14;;;;;;;17.60;7.38;;;6.60;99.90;;;;;;5052603;28;20496;-78
2022/11/27 11:28:50;;;;;;;16.20;8.45;;;6.50;99.90;;;;;;5054022;28;20041;-77
2022/11/27 11:31:19;;;;;;;12.55;7.75;;;6.60;99.90;;;;;;5051423;28;20123;-77
2022/11/27 11:34:12;;;;;;;15.32;6.55;;;6.60;99.90;;;;;;5068902;28;20531;-77
2022/11/27 11:36:37;;;;;;;16.00;6.55;;;6.60;99.90;;;;;;5067277;28;20070;-77
2022/11/27 11:39:03;;;;;;;12.13;6.10;;;8.10;99.90;;;;;;5069653;28;20531;-78
2022/11/27 11:41:37;;;;;;;21.40;7.82;;;6.70;99.90;;;;;;5068171;28;20075;-78
2022/11/27 11:44:03;;;;;;;16.75;7.72;;;6.70;99.90;;;;;;5064951;28;20043;-79
2022/11/27 11:46:32;;;;;;;15.55;7.07;;;6.60;99.90;;;;;;5069481;28;20044;-82
2022/11/27 11:49:14;;;;;;;14.73;7.43;;;6.60;99.90;;;;;;5053915;28;20056;-80
2022/11/27 11:52:07;;;;;;;13.02;7.50;;;6.70;99.90;;;;;;5070480;28;20032;-81
2022/11/27 11:54:51;;;;;;;13.68;6.65;;;6.70;99.90;;;;;;5086584;28;20396;-81
2022/11/27 11:58:02;;;;;;;15.18;7.20;;;6.70;99.90;;;;;;5068961;28;20049;-80
2022/11/27 12:00:44;;;;;;;16.33;6.68;;;6.70;99.90;;;;;;5015248;28;20042;-80
2022/11/27 12:03:25;;;;;;;14.68;8.05;;;7.10;99.90;;;;;;5068632;28;20523;-81
2022/11/27 12:06:30;;;;;;;13.77;6.10;;;6.70;99.90;;;;;;5069912;28;20040;-79
2022/11/27 12:09:20;;;;;;;15.05;7.80;;;6.80;99.90;;;;;;5069651;28;20052;-80
2022/11/27 12:11:53;;;;;;;14.80;7.50;;;6.70;99.90;;;;;;5070146;28;20048;-81
2022/11/27 12:14:39;;;;;;;18.63;7.85;;;6.80;99.90;;;;;;5071755;28;20155;-80
2022/11/27 12:17:23;;;;;;;14.20;7.88;;;6.80;99.90;;;;;;5062549;28;20408;-80
2022/11/27 12:19:52;;;;;;;15.15;6.43;;;6.80;99.90;;;;;;5072402;28;20044;-81
2022/11/27 12:22:30;;;;;;;15.13;7.78;;;6.80;99.90;;;;;;5073115;28;20064;-81
2022/11/27 12:25:14;;;;;;;13.57;6.72;;;6.80;99.90;;;;;;5072623;28;20037;-81
2022/11/27 12:28:04;;;;;;;13.57;7.28;;;6.80;99.90;;;;;;5049854;28;20041;-82
2022/11/27 12:31:06;;;;;;;16.42;7.35;;;6.80;99.90;;;;;;5049872;28;20203;-81
2022/11/27 12:33:45;;;;;;;12.48;7.18;;;6.80;99.90;;;;;;5046220;28;20141;-81
2022/11/27 12:36:32;;;;;;;14.05;6.90;;;6.80;99.90;;;;;;5073690;28;20037;-81
2022/11/27 12:39:10;;;;;;;13.73;7.10;;;6.90;99.90;;;;;;5073039;28;20048;-81
2022/11/27 12:42:05;;;;;;;9.20;5.53;;;6.90;99.90;;;;;;5052284;28;20048;-81
2022/11/27 12:44:37;;;;;;;13.75;6.00;;;7.50;99.90;;;;;;5051874;28;20052;-81
2022/11/27 12:47:20;;;;;;;9.73;5.75;;;6.90;99.90;;;;;;5057555;28;20043;-81
2022/11/27 12:50:01;;;;;;;11.80;6.75;;;6.90;99.90;;;;;;5056802;28;20052;-81
2022/11/27 12:52:32;;;;;;;13.32;6.70;;;6.90;99.90;;;;;;5070531;28;20048;-81
2022/11/27 12:55:11;;;;;;;12.65;6.63;;;6.80;99.90;;;;;;5055760;28;20049;-81
2022/11/27 12:57:46;;;;;;;12.35;6.20;;;6.90;99.90;;;;;;5056301;28;20056;-81
2022/11/27 13:00:20;;;;;;;14.00;6.75;;;7.00;99.90;;;;;;5074731;28;20070;-82
2022/11/27 13:02:58;;;;;;;16.30;7.10;;;6.90;99.90;;;;;;5057416;28;20036;-82
2022/11/27 13:05:30;;;;;;;13.98;5.75;;;6.90;99.90;;;;;;5088379;28;20041;-82
2022/11/27 13:08:24;;;;;;;13.48;7.25;;;6.90;99.90;;;;;;5073307;28;20069;-81
2022/11/27 13:10:55;;;;;;;14.05;7.50;;;6.90;99.90;;;;;;5056863;28;20040;-81